Montezuma, North Carolina
Current Conditions -  °F | °C
As of 1:35 AM on Monday 26 Jan 2015 (Local Time) from KTNB Reporting Station
Clear Clear  
Wind Chill: 34°   Ceiling: Unl
Heat Index: 34°   Visibility: 10mi
Dew Point: 28°   Wind: 3mph
Humidity: 78%   Direction: 160°SSE
Pressure: 29.64"   Gusts: NA
Location:  36.06°N, 81.9°W
Report Text: KTNB 260635Z AUTO 16003KT 10SM CLR 01/M02 A2964 RMK AO2 T00131022
Loading
Personal Weather Stations






























Interactive Weather Map New forecast layout! Learn more

10-Day Weather Forecast

Advertisements
Track Severe Weather on mobile